sensor_id;sensor_type;location;lat;lon;timestamp;P1;durP1;ratioP1;P2;durP2;ratioP2
24799;SDS011;12897;50.812;4.430;2023-05-07T00:01:13;11.57;;;4.22;;
24799;SDS011;12897;50.812;4.430;2023-05-07T00:03:41;17.98;;;4.65;;
24799;SDS011;12897;50.812;4.430;2023-05-07T00:06:09;15.48;;;4.70;;
24799;SDS011;12897;50.812;4.430;2023-05-07T00:08:38;12.05;;;4.67;;
24799;SDS011;12897;50.812;4.430;2023-05-07T00:11:08;12.53;;;4.40;;
24799;SDS011;12897;50.812;4.430;2023-05-07T00:13:35;16.10;;;3.90;;
24799;SDS011;12897;50.812;4.430;2023-05-07T00:16:03;11.88;;;4.20;;
24799;SDS011;12897;50.812;4.430;2023-05-07T00:18:32;14.65;;;4.58;;
24799;SDS011;12897;50.812;4.430;2023-05-07T00:20:59;9.30;;;4.20;;
24799;SDS011;12897;50.812;4.430;2023-05-07T00:23:27;13.05;;;3.90;;
24799;SDS011;12897;50.812;4.430;2023-05-07T00:25:54;16.73;;;3.92;;
24799;SDS011;12897;50.812;4.430;2023-05-07T00:28:22;12.43;;;4.42;;
24799;SDS011;12897;50.812;4.430;2023-05-07T00:30:50;16.00;;;3.90;;
24799;SDS011;12897;50.812;4.430;2023-05-07T00:33:17;14.00;;;4.08;;
24799;SDS011;12897;50.812;4.430;2023-05-07T00:35:46;12.15;;;5.17;;
24799;SDS011;12897;50.812;4.430;2023-05-07T00:38:14;13.95;;;4.53;;
24799;SDS011;12897;50.812;4.430;2023-05-07T00:40:42;17.17;;;4.70;;
24799;SDS011;12897;50.812;4.430;2023-05-07T00:43:11;13.65;;;4.08;;
24799;SDS011;12897;50.812;4.430;2023-05-07T00:45:39;13.03;;;4.90;;
24799;SDS011;12897;50.812;4.430;2023-05-07T00:48:07;11.78;;;4.67;;
24799;SDS011;12897;50.812;4.430;2023-05-07T00:50:36;13.98;;;5.08;;
24799;SDS011;12897;50.812;4.430;2023-05-07T00:53:03;13.00;;;4.53;;
24799;SDS011;12897;50.812;4.430;2023-05-07T00:55:31;14.85;;;4.70;;
24799;SDS011;12897;50.812;4.430;2023-05-07T00:58:00;12.98;;;4.40;;
24799;SDS011;12897;50.812;4.430;2023-05-07T01:03:07;9.35;;;3.77;;
24799;SDS011;12897;50.812;4.430;2023-05-07T01:05:35;17.70;;;4.08;;
24799;SDS011;12897;50.812;4.430;2023-05-07T01:08:03;9.28;;;3.52;;
24799;SDS011;12897;50.812;4.430;2023-05-07T01:10:31;12.85;;;4.72;;
24799;SDS011;12897;50.812;4.430;2023-05-07T01:12:59;11.78;;;4.40;;
24799;SDS011;12897;50.812;4.430;2023-05-07T01:15:27;17.37;;;4.67;;
24799;SDS011;12897;50.812;4.430;2023-05-07T01:17:55;10.43;;;3.85;;
24799;SDS011;12897;50.812;4.430;2023-05-07T01:20:23;13.05;;;4.00;;
24799;SDS011;12897;50.812;4.430;2023-05-07T01:22:50;23.18;;;4.95;;
24799;SDS011;12897;50.812;4.430;2023-05-07T01:25:18;11.08;;;4.45;;
24799;SDS011;12897;50.812;4.430;2023-05-07T01:27:48;9.70;;;4.12;;
24799;SDS011;12897;50.812;4.430;2023-05-07T01:30:16;11.03;;;4.12;;
24799;SDS011;12897;50.812;4.430;2023-05-07T01:32:48;13.72;;;4.22;;
24799;SDS011;12897;50.812;4.430;2023-05-07T01:35:18;11.10;;;3.87;;
24799;SDS011;12897;50.812;4.430;2023-05-07T01:37:48;13.83;;;3.87;;
24799;SDS011;12897;50.812;4.430;2023-05-07T01:40:16;15.78;;;4.10;;
24799;SDS011;12897;50.812;4.430;2023-05-07T01:42:46;16.48;;;4.35;;
24799;SDS011;12897;50.812;4.430;2023-05-07T01:45:14;8.68;;;4.10;;
24799;SDS011;12897;50.812;4.430;2023-05-07T01:47:42;12.05;;;3.95;;
24799;SDS011;12897;50.812;4.430;2023-05-07T01:50:10;9.35;;;3.62;;
24799;SDS011;12897;50.812;4.430;2023-05-07T01:52:38;12.50;;;3.87;;
24799;SDS011;12897;50.812;4.430;2023-05-07T01:55:06;13.48;;;3.87;;
24799;SDS011;12897;50.812;4.430;2023-05-07T01:57:34;10.15;;;3.85;;
24799;SDS011;12897;50.812;4.430;2023-05-07T02:00:02;10.55;;;4.00;;
24799;SDS011;12897;50.812;4.430;2023-05-07T02:02:31;10.95;;;4.10;;
24799;SDS011;12897;50.812;4.430;2023-05-07T02:04:59;11.53;;;4.10;;
24799;SDS011;12897;50.812;4.430;2023-05-07T02:07:27;14.98;;;4.17;;
24799;SDS011;12897;50.812;4.430;2023-05-07T02:09:55;13.15;;;4.12;;
24799;SDS011;12897;50.812;4.430;2023-05-07T02:12:23;11.68;;;4.25;;
24799;SDS011;12897;50.812;4.430;2023-05-07T02:14:51;15.23;;;5.12;;
24799;SDS011;12897;50.812;4.430;2023-05-07T02:17:18;13.62;;;4.60;;
24799;SDS011;12897;50.812;4.430;2023-05-07T02:19:47;18.48;;;5.05;;
24799;SDS011;12897;50.812;4.430;2023-05-07T02:22:15;18.10;;;4.17;;
24799;SDS011;12897;50.812;4.430;2023-05-07T02:24:42;13.45;;;4.30;;
24799;SDS011;12897;50.812;4.430;2023-05-07T02:27:10;10.40;;;4.20;;
24799;SDS011;12897;50.812;4.430;2023-05-07T02:29:43;13.98;;;4.55;;
24799;SDS011;12897;50.812;4.430;2023-05-07T02:32:11;11.78;;;4.37;;
24799;SDS011;12897;50.812;4.430;2023-05-07T02:34:38;12.63;;;4.15;;
24799;SDS011;12897;50.812;4.430;2023-05-07T02:37:06;12.28;;;4.40;;
24799;SDS011;12897;50.812;4.430;2023-05-07T02:39:33;19.67;;;5.20;;
24799;SDS011;12897;50.812;4.430;2023-05-07T02:42:01;12.45;;;4.28;;
24799;SDS011;12897;50.812;4.430;2023-05-07T02:44:28;13.83;;;4.25;;
24799;SDS011;12897;50.812;4.430;2023-05-07T02:46:57;22.22;;;5.17;;
24799;SDS011;12897;50.812;4.430;2023-05-07T02:49:24;16.20;;;4.35;;
24799;SDS011;12897;50.812;4.430;2023-05-07T02:51:52;10.03;;;4.17;;
24799;SDS011;12897;50.812;4.430;2023-05-07T02:54:21;18.60;;;4.62;;
24799;SDS011;12897;50.812;4.430;2023-05-07T02:56:49;14.13;;;4.35;;
24799;SDS011;12897;50.812;4.430;2023-05-07T02:59:16;13.83;;;4.28;;
24799;SDS011;12897;50.812;4.430;2023-05-07T03:01:50;12.58;;;4.50;;
24799;SDS011;12897;50.812;4.430;2023-05-07T03:04:18;17.95;;;4.75;;
24799;SDS011;12897;50.812;4.430;2023-05-07T03:06:46;12.13;;;4.35;;
24799;SDS011;12897;50.812;4.430;2023-05-07T03:09:13;11.70;;;4.12;;
24799;SDS011;12897;50.812;4.430;2023-05-07T03:11:42;7.60;;;4.05;;
24799;SDS011;12897;50.812;4.430;2023-05-07T03:14:10;11.85;;;4.37;;
24799;SDS011;12897;50.812;4.430;2023-05-07T03:16:37;14.20;;;4.60;;
24799;SDS011;12897;50.812;4.430;2023-05-07T03:19:06;11.53;;;4.03;;
24799;SDS011;12897;50.812;4.430;2023-05-07T03:21:33;15.15;;;4.22;;
24799;SDS011;12897;50.812;4.430;2023-05-07T03:24:01;17.40;;;4.67;;
24799;SDS011;12897;50.812;4.430;2023-05-07T03:26:28;9.78;;;4.47;;
24799;SDS011;12897;50.812;4.430;2023-05-07T03:28:56;10.72;;;4.72;;
24799;SDS011;12897;50.812;4.430;2023-05-07T03:31:23;15.43;;;4.22;;
24799;SDS011;12897;50.812;4.430;2023-05-07T03:33:52;13.65;;;4.78;;
24799;SDS011;12897;50.812;4.430;2023-05-07T03:36:20;14.80;;;4.70;;
24799;SDS011;12897;50.812;4.430;2023-05-07T03:38:48;12.93;;;4.67;;
24799;SDS011;12897;50.812;4.430;2023-05-07T03:41:32;9.95;;;4.28;;
24799;SDS011;12897;50.812;4.430;2023-05-07T03:43:59;8.63;;;4.35;;
24799;SDS011;12897;50.812;4.430;2023-05-07T03:46:27;12.30;;;4.28;;
24799;SDS011;12897;50.812;4.430;2023-05-07T03:48:55;10.80;;;4.67;;
24799;SDS011;12897;50.812;4.430;2023-05-07T03:51:23;11.25;;;4.45;;
24799;SDS011;12897;50.812;4.430;2023-05-07T03:53:51;10.98;;;4.80;;
24799;SDS011;12897;50.812;4.430;2023-05-07T03:56:19;13.98;;;4.90;;
24799;SDS011;12897;50.812;4.430;2023-05-07T03:58:47;12.58;;;4.40;;
24799;SDS011;12897;50.812;4.430;2023-05-07T04:01:16;11.15;;;4.25;;
24799;SDS011;12897;50.812;4.430;2023-05-07T04:03:43;12.73;;;4.20;;
24799;SDS011;12897;50.812;4.430;2023-05-07T04:06:11;10.45;;;4.22;;
24799;SDS011;12897;50.812;4.430;2023-05-07T04:08:38;11.08;;;3.72;;
24799;SDS011;12897;50.812;4.430;2023-05-07T04:11:06;12.50;;;4.37;;
24799;SDS011;12897;50.812;4.430;2023-05-07T04:13:35;9.80;;;4.08;;
24799;SDS011;12897;50.812;4.430;2023-05-07T04:16:03;10.25;;;4.05;;
24799;SDS011;12897;50.812;4.430;2023-05-07T04:18:31;13.65;;;4.72;;
24799;SDS011;12897;50.812;4.430;2023-05-07T04:21:00;9.60;;;4.53;;
24799;SDS011;12897;50.812;4.430;2023-05-07T04:23:27;11.53;;;4.80;;
24799;SDS011;12897;50.812;4.430;2023-05-07T04:25:55;9.45;;;4.65;;
24799;SDS011;12897;50.812;4.430;2023-05-07T04:28:23;13.48;;;4.45;;
24799;SDS011;12897;50.812;4.430;2023-05-07T04:30:51;12.55;;;5.00;;
24799;SDS011;12897;50.812;4.430;2023-05-07T04:33:19;17.17;;;4.87;;
24799;SDS011;12897;50.812;4.430;2023-05-07T04:35:46;23.25;;;4.83;;
24799;SDS011;12897;50.812;4.430;2023-05-07T04:38:14;12.33;;;4.55;;
24799;SDS011;12897;50.812;4.430;2023-05-07T04:40:42;10.85;;;4.30;;
24799;SDS011;12897;50.812;4.430;2023-05-07T04:43:09;9.03;;;4.28;;
24799;SDS011;12897;50.812;4.430;2023-05-07T04:45:37;12.07;;;4.28;;
24799;SDS011;12897;50.812;4.430;2023-05-07T04:48:08;13.53;;;4.25;;
24799;SDS011;12897;50.812;4.430;2023-05-07T04:50:36;13.53;;;4.37;;
24799;SDS011;12897;50.812;4.430;2023-05-07T04:53:04;12.13;;;4.00;;
24799;SDS011;12897;50.812;4.430;2023-05-07T04:55:31;11.22;;;4.85;;
24799;SDS011;12897;50.812;4.430;2023-05-07T04:57:59;11.65;;;4.45;;
24799;SDS011;12897;50.812;4.430;2023-05-07T05:00:27;7.12;;;3.87;;
24799;SDS011;12897;50.812;4.430;2023-05-07T05:02:57;13.13;;;4.78;;
24799;SDS011;12897;50.812;4.430;2023-05-07T05:05:24;11.57;;;4.30;;
24799;SDS011;12897;50.812;4.430;2023-05-07T05:07:51;13.35;;;4.33;;
24799;SDS011;12897;50.812;4.430;2023-05-07T05:10:19;9.03;;;4.22;;
24799;SDS011;12897;50.812;4.430;2023-05-07T05:12:47;8.53;;;4.15;;
24799;SDS011;12897;50.812;4.430;2023-05-07T05:15:15;13.83;;;4.37;;
24799;SDS011;12897;50.812;4.430;2023-05-07T05:17:43;11.28;;;3.98;;
24799;SDS011;12897;50.812;4.430;2023-05-07T05:20:10;11.18;;;4.95;;
24799;SDS011;12897;50.812;4.430;2023-05-07T05:22:38;10.10;;;4.20;;
24799;SDS011;12897;50.812;4.430;2023-05-07T05:25:06;12.00;;;4.20;;
24799;SDS011;12897;50.812;4.430;2023-05-07T05:27:34;12.80;;;4.05;;
24799;SDS011;12897;50.812;4.430;2023-05-07T05:30:02;13.40;;;4.50;;
24799;SDS011;12897;50.812;4.430;2023-05-07T05:32:31;13.10;;;4.45;;
24799;SDS011;12897;50.812;4.430;2023-05-07T05:34:59;11.30;;;4.37;;
24799;SDS011;12897;50.812;4.430;2023-05-07T05:37:31;11.53;;;5.28;;
24799;SDS011;12897;50.812;4.430;2023-05-07T05:39:59;9.30;;;4.70;;
24799;SDS011;12897;50.812;4.430;2023-05-07T05:42:28;11.85;;;4.25;;
24799;SDS011;12897;50.812;4.430;2023-05-07T05:44:56;10.23;;;3.90;;
24799;SDS011;12897;50.812;4.430;2023-05-07T05:47:24;10.20;;;4.97;;
24799;SDS011;12897;50.812;4.430;2023-05-07T05:49:51;12.18;;;4.55;;
24799;SDS011;12897;50.812;4.430;2023-05-07T05:52:19;13.95;;;4.25;;
24799;SDS011;12897;50.812;4.430;2023-05-07T05:54:48;13.60;;;4.53;;
24799;SDS011;12897;50.812;4.430;2023-05-07T05:57:16;12.43;;;4.20;;
24799;SDS011;12897;50.812;4.430;2023-05-07T05:59:44;8.23;;;4.15;;
24799;SDS011;12897;50.812;4.430;2023-05-07T06:02:13;11.67;;;4.50;;
24799;SDS011;12897;50.812;4.430;2023-05-07T06:04:40;9.95;;;4.33;;
24799;SDS011;12897;50.812;4.430;2023-05-07T06:07:08;8.60;;;3.75;;
24799;SDS011;12897;50.812;4.430;2023-05-07T06:09:37;13.33;;;4.60;;
24799;SDS011;12897;50.812;4.430;2023-05-07T06:12:05;11.12;;;4.58;;
24799;SDS011;12897;50.812;4.430;2023-05-07T06:14:32;16.80;;;4.58;;
24799;SDS011;12897;50.812;4.430;2023-05-07T06:17:00;14.15;;;4.22;;
24799;SDS011;12897;50.812;4.430;2023-05-07T06:19:27;11.12;;;4.42;;
24799;SDS011;12897;50.812;4.430;2023-05-07T06:21:55;12.82;;;4.85;;
24799;SDS011;12897;50.812;4.430;2023-05-07T06:24:23;14.03;;;4.30;;
24799;SDS011;12897;50.812;4.430;2023-05-07T06:26:51;13.08;;;4.47;;
24799;SDS011;12897;50.812;4.430;2023-05-07T06:29:18;12.65;;;4.30;;
24799;SDS011;12897;50.812;4.430;2023-05-07T06:31:46;13.65;;;4.85;;
24799;SDS011;12897;50.812;4.430;2023-05-07T06:34:14;18.40;;;5.78;;
24799;SDS011;12897;50.812;4.430;2023-05-07T06:36:41;20.40;;;5.72;;
24799;SDS011;12897;50.812;4.430;2023-05-07T06:39:09;17.75;;;5.12;;
24799;SDS011;12897;50.812;4.430;2023-05-07T06:41:38;15.85;;;5.35;;
24799;SDS011;12897;50.812;4.430;2023-05-07T06:44:06;14.98;;;5.78;;
24799;SDS011;12897;50.812;4.430;2023-05-07T06:46:33;19.00;;;6.40;;
24799;SDS011;12897;50.812;4.430;2023-05-07T06:49:01;19.57;;;5.42;;
24799;SDS011;12897;50.812;4.430;2023-05-07T06:51:28;16.42;;;5.62;;
24799;SDS011;12897;50.812;4.430;2023-05-07T06:53:56;14.50;;;5.35;;
24799;SDS011;12897;50.812;4.430;2023-05-07T06:56:24;14.28;;;5.50;;
24799;SDS011;12897;50.812;4.430;2023-05-07T06:58:51;22.02;;;5.72;;
24799;SDS011;12897;50.812;4.430;2023-05-07T07:01:19;14.03;;;5.60;;
24799;SDS011;12897;50.812;4.430;2023-05-07T07:03:46;15.78;;;5.72;;
24799;SDS011;12897;50.812;4.430;2023-05-07T07:06:14;10.65;;;5.12;;
24799;SDS011;12897;50.812;4.430;2023-05-07T07:08:42;16.60;;;5.90;;
24799;SDS011;12897;50.812;4.430;2023-05-07T07:11:09;15.85;;;5.85;;
24799;SDS011;12897;50.812;4.430;2023-05-07T07:13:37;12.25;;;6.03;;
24799;SDS011;12897;50.812;4.430;2023-05-07T07:16:06;20.40;;;5.97;;
24799;SDS011;12897;50.812;4.430;2023-05-07T07:18:33;14.65;;;6.33;;
24799;SDS011;12897;50.812;4.430;2023-05-07T07:23:32;15.32;;;5.37;;
24799;SDS011;12897;50.812;4.430;2023-05-07T07:25:59;11.63;;;5.37;;
24799;SDS011;12897;50.812;4.430;2023-05-07T07:28:28;11.73;;;4.80;;
24799;SDS011;12897;50.812;4.430;2023-05-07T07:30:56;13.62;;;5.40;;
24799;SDS011;12897;50.812;4.430;2023-05-07T07:33:25;15.55;;;5.30;;
24799;SDS011;12897;50.812;4.430;2023-05-07T07:35:53;14.10;;;5.30;;
24799;SDS011;12897;50.812;4.430;2023-05-07T07:38:22;13.00;;;5.72;;
24799;SDS011;12897;50.812;4.430;2023-05-07T07:40:49;15.45;;;5.53;;
24799;SDS011;12897;50.812;4.430;2023-05-07T07:43:18;12.33;;;5.47;;
24799;SDS011;12897;50.812;4.430;2023-05-07T07:45:45;12.50;;;5.17;;
24799;SDS011;12897;50.812;4.430;2023-05-07T07:48:15;13.50;;;5.53;;
24799;SDS011;12897;50.812;4.430;2023-05-07T07:50:43;11.60;;;5.03;;
24799;SDS011;12897;50.812;4.430;2023-05-07T07:53:11;13.32;;;5.75;;
24799;SDS011;12897;50.812;4.430;2023-05-07T07:55:39;17.25;;;6.03;;
24799;SDS011;12897;50.812;4.430;2023-05-07T07:58:07;12.23;;;5.40;;
24799;SDS011;12897;50.812;4.430;2023-05-07T08:00:34;15.68;;;5.03;;
24799;SDS011;12897;50.812;4.430;2023-05-07T08:03:03;14.78;;;5.05;;
24799;SDS011;12897;50.812;4.430;2023-05-07T08:05:35;16.57;;;5.62;;
24799;SDS011;12897;50.812;4.430;2023-05-07T08:08:04;13.95;;;5.47;;
24799;SDS011;12897;50.812;4.430;2023-05-07T08:10:32;15.08;;;5.20;;
24799;SDS011;12897;50.812;4.430;2023-05-07T08:13:01;14.80;;;5.75;;
24799;SDS011;12897;50.812;4.430;2023-05-07T08:15:30;10.85;;;4.92;;
24799;SDS011;12897;50.812;4.430;2023-05-07T08:18:00;12.53;;;4.97;;
24799;SDS011;12897;50.812;4.430;2023-05-07T08:20:28;13.28;;;5.20;;
24799;SDS011;12897;50.812;4.430;2023-05-07T08:22:56;16.55;;;5.15;;
24799;SDS011;12897;50.812;4.430;2023-05-07T08:25:25;9.55;;;4.40;;
24799;SDS011;12897;50.812;4.430;2023-05-07T08:27:53;14.95;;;5.25;;
24799;SDS011;12897;50.812;4.430;2023-05-07T08:30:20;8.43;;;4.58;;
24799;SDS011;12897;50.812;4.430;2023-05-07T08:32:48;11.93;;;5.05;;
24799;SDS011;12897;50.812;4.430;2023-05-07T08:35:16;13.08;;;5.20;;
24799;SDS011;12897;50.812;4.430;2023-05-07T08:37:43;15.35;;;5.10;;
24799;SDS011;12897;50.812;4.430;2023-05-07T08:40:11;13.50;;;5.50;;
24799;SDS011;12897;50.812;4.430;2023-05-07T08:42:39;9.33;;;5.08;;
24799;SDS011;12897;50.812;4.430;2023-05-07T08:45:09;8.85;;;4.87;;
24799;SDS011;12897;50.812;4.430;2023-05-07T08:47:43;9.93;;;5.10;;
24799;SDS011;12897;50.812;4.430;2023-05-07T08:50:13;7.92;;;4.83;;
24799;SDS011;12897;50.812;4.430;2023-05-07T08:52:41;10.32;;;4.37;;
24799;SDS011;12897;50.812;4.430;2023-05-07T08:55:09;9.75;;;4.72;;
24799;SDS011;12897;50.812;4.430;2023-05-07T08:57:38;11.55;;;4.53;;
24799;SDS011;12897;50.812;4.430;2023-05-07T09:00:06;9.23;;;4.25;;
24799;SDS011;12897;50.812;4.430;2023-05-07T09:02:35;12.17;;;4.57;;
24799;SDS011;12897;50.812;4.430;2023-05-07T09:05:03;8.93;;;4.35;;
24799;SDS011;12897;50.812;4.430;2023-05-07T09:07:31;7.75;;;3.90;;
24799;SDS011;12897;50.812;4.430;2023-05-07T09:10:01;10.05;;;3.80;;
24799;SDS011;12897;50.812;4.430;2023-05-07T09:12:30;10.50;;;4.12;;
24799;SDS011;12897;50.812;4.430;2023-05-07T09:14:58;8.60;;;4.10;;
24799;SDS011;12897;50.812;4.430;2023-05-07T09:17:26;15.83;;;5.45;;
24799;SDS011;12897;50.812;4.430;2023-05-07T09:19:54;11.63;;;4.53;;
24799;SDS011;12897;50.812;4.430;2023-05-07T09:22:22;10.82;;;5.00;;
24799;SDS011;12897;50.812;4.430;2023-05-07T09:24:50;10.48;;;4.45;;
24799;SDS011;12897;50.812;4.430;2023-05-07T09:27:18;10.13;;;4.10;;
24799;SDS011;12897;50.812;4.430;2023-05-07T09:29:46;14.00;;;5.05;;
24799;SDS011;12897;50.812;4.430;2023-05-07T09:32:13;11.35;;;4.80;;
24799;SDS011;12897;50.812;4.430;2023-05-07T09:34:42;10.85;;;4.37;;
24799;SDS011;12897;50.812;4.430;2023-05-07T09:37:10;13.10;;;5.03;;
24799;SDS011;12897;50.812;4.430;2023-05-07T09:42:11;8.63;;;4.10;;
24799;SDS011;12897;50.812;4.430;2023-05-07T09:44:40;7.12;;;3.15;;
24799;SDS011;12897;50.812;4.430;2023-05-07T09:47:11;9.60;;;3.90;;
24799;SDS011;12897;50.812;4.430;2023-05-07T09:49:42;11.30;;;3.50;;
24799;SDS011;12897;50.812;4.430;2023-05-07T09:52:15;10.05;;;3.92;;
24799;SDS011;12897;50.812;4.430;2023-05-07T09:54:45;12.37;;;3.70;;
24799;SDS011;12897;50.812;4.430;2023-05-07T09:57:15;6.55;;;2.95;;
24799;SDS011;12897;50.812;4.430;2023-05-07T09:59:47;7.72;;;3.40;;
24799;SDS011;12897;50.812;4.430;2023-05-07T10:02:17;7.05;;;3.50;;
24799;SDS011;12897;50.812;4.430;2023-05-07T10:04:47;10.37;;;2.97;;
24799;SDS011;12897;50.812;4.430;2023-05-07T10:07:16;10.13;;;3.15;;
24799;SDS011;12897;50.812;4.430;2023-05-07T10:09:43;9.10;;;3.45;;
24799;SDS011;12897;50.812;4.430;2023-05-07T10:12:12;9.68;;;4.08;;
24799;SDS011;12897;50.812;4.430;2023-05-07T10:14:40;10.82;;;3.58;;
24799;SDS011;12897;50.812;4.430;2023-05-07T10:17:08;9.68;;;3.27;;
24799;SDS011;12897;50.812;4.430;2023-05-07T10:22:06;10.05;;;3.10;;
24799;SDS011;12897;50.812;4.430;2023-05-07T10:24:35;7.33;;;3.30;;
24799;SDS011;12897;50.812;4.430;2023-05-07T10:27:05;7.83;;;3.08;;
24799;SDS011;12897;50.812;4.430;2023-05-07T10:30:38;5.72;;;2.85;;
24799;SDS011;12897;50.812;4.430;2023-05-07T10:32:30;9.85;;;3.40;;
24799;SDS011;12897;50.812;4.430;2023-05-07T10:34:56;9.68;;;3.00;;
24799;SDS011;12897;50.812;4.430;2023-05-07T10:37:28;11.65;;;3.58;;
24799;SDS011;12897;50.812;4.430;2023-05-07T10:39:57;8.73;;;3.33;;
24799;SDS011;12897;50.812;4.430;2023-05-07T10:42:25;6.33;;;3.00;;
24799;SDS011;12897;50.812;4.430;2023-05-07T10:44:53;10.25;;;3.40;;
24799;SDS011;12897;50.812;4.430;2023-05-07T10:47:21;8.30;;;3.25;;
24799;SDS011;12897;50.812;4.430;2023-05-07T10:52:21;5.37;;;2.70;;
24799;SDS011;12897;50.812;4.430;2023-05-07T10:57:45;8.45;;;3.30;;
24799;SDS011;12897;50.812;4.430;2023-05-07T11:05:32;6.70;;;3.08;;
24799;SDS011;12897;50.812;4.430;2023-05-07T11:08:01;7.47;;;2.65;;
24799;SDS011;12897;50.812;4.430;2023-05-07T11:16:16;6.20;;;2.70;;
24799;SDS011;12897;50.812;4.430;2023-05-07T11:18:49;9.53;;;2.95;;
24799;SDS011;12897;50.812;4.430;2023-05-07T11:21:33;9.55;;;2.67;;
24799;SDS011;12897;50.812;4.430;2023-05-07T11:24:03;7.33;;;2.52;;
24799;SDS011;12897;50.812;4.430;2023-05-07T11:26:42;6.62;;;2.50;;
24799;SDS011;12897;50.812;4.430;2023-05-07T11:29:17;6.58;;;2.50;;
24799;SDS011;12897;50.812;4.430;2023-05-07T11:31:54;5.30;;;2.33;;
24799;SDS011;12897;50.812;4.430;2023-05-07T11:34:23;10.23;;;3.67;;
24799;SDS011;12897;50.812;4.430;2023-05-07T11:36:53;5.58;;;3.37;;
24799;SDS011;12897;50.812;4.430;2023-05-07T11:39:27;5.83;;;2.70;;
24799;SDS011;12897;50.812;4.430;2023-05-07T11:41:56;6.28;;;2.47;;
24799;SDS011;12897;50.812;4.430;2023-05-07T11:44:23;6.00;;;2.10;;
24799;SDS011;12897;50.812;4.430;2023-05-07T11:46:51;5.92;;;2.55;;
24799;SDS011;12897;50.812;4.430;2023-05-07T11:49:18;5.33;;;2.60;;
24799;SDS011;12897;50.812;4.430;2023-05-07T11:51:46;10.82;;;2.50;;
24799;SDS011;12897;50.812;4.430;2023-05-07T11:54:15;4.12;;;2.75;;
24799;SDS011;12897;50.812;4.430;2023-05-07T11:56:43;5.70;;;2.45;;
24799;SDS011;12897;50.812;4.430;2023-05-07T11:59:11;6.65;;;2.83;;
24799;SDS011;12897;50.812;4.430;2023-05-07T12:01:40;3.67;;;2.33;;
24799;SDS011;12897;50.812;4.430;2023-05-07T12:04:11;4.65;;;2.30;;
24799;SDS011;12897;50.812;4.430;2023-05-07T12:06:38;4.80;;;2.50;;
24799;SDS011;12897;50.812;4.430;2023-05-07T12:09:06;5.58;;;2.52;;
24799;SDS011;12897;50.812;4.430;2023-05-07T12:11:35;6.90;;;2.27;;
24799;SDS011;12897;50.812;4.430;2023-05-07T12:14:05;7.42;;;2.90;;
24799;SDS011;12897;50.812;4.430;2023-05-07T12:16:35;4.33;;;2.50;;
24799;SDS011;12897;50.812;4.430;2023-05-07T12:19:02;5.92;;;2.50;;
24799;SDS011;12897;50.812;4.430;2023-05-07T12:21:32;4.55;;;2.27;;
24799;SDS011;12897;50.812;4.430;2023-05-07T12:24:02;3.90;;;2.20;;
24799;SDS011;12897;50.812;4.430;2023-05-07T12:26:29;6.05;;;2.52;;
24799;SDS011;12897;50.812;4.430;2023-05-07T12:28:57;7.37;;;2.42;;
24799;SDS011;12897;50.812;4.430;2023-05-07T12:31:25;4.62;;;2.10;;
24799;SDS011;12897;50.812;4.430;2023-05-07T12:33:53;4.95;;;2.22;;
24799;SDS011;12897;50.812;4.430;2023-05-07T12:36:21;5.08;;;2.77;;
24799;SDS011;12897;50.812;4.430;2023-05-07T12:38:51;5.33;;;2.60;;
24799;SDS011;12897;50.812;4.430;2023-05-07T12:41:22;4.42;;;2.58;;
24799;SDS011;12897;50.812;4.430;2023-05-07T12:43:53;5.12;;;2.72;;
24799;SDS011;12897;50.812;4.430;2023-05-07T12:46:23;6.90;;;2.27;;
24799;SDS011;12897;50.812;4.430;2023-05-07T12:48:51;6.00;;;2.70;;
24799;SDS011;12897;50.812;4.430;2023-05-07T12:51:20;6.42;;;3.15;;
24799;SDS011;12897;50.812;4.430;2023-05-07T12:53:48;8.20;;;3.08;;
24799;SDS011;12897;50.812;4.430;2023-05-07T12:56:16;6.28;;;2.90;;
24799;SDS011;12897;50.812;4.430;2023-05-07T12:58:43;6.15;;;2.62;;
24799;SDS011;12897;50.812;4.430;2023-05-07T13:01:12;9.20;;;3.10;;
24799;SDS011;12897;50.812;4.430;2023-05-07T13:03:41;6.65;;;2.72;;
24799;SDS011;12897;50.812;4.430;2023-05-07T13:06:10;7.10;;;3.05;;
24799;SDS011;12897;50.812;4.430;2023-05-07T13:08:39;4.28;;;2.83;;
24799;SDS011;12897;50.812;4.430;2023-05-07T13:11:15;5.08;;;3.02;;
24799;SDS011;12897;50.812;4.430;2023-05-07T13:13:43;9.68;;;3.50;;
24799;SDS011;12897;50.812;4.430;2023-05-07T13:16:10;4.67;;;2.70;;
24799;SDS011;12897;50.812;4.430;2023-05-07T13:18:38;6.62;;;3.50;;
24799;SDS011;12897;50.812;4.430;2023-05-07T13:21:09;6.37;;;3.12;;
24799;SDS011;12897;50.812;4.430;2023-05-07T13:23:40;9.60;;;3.20;;
24799;SDS011;12897;50.812;4.430;2023-05-07T13:26:08;4.97;;;3.20;;
24799;SDS011;12897;50.812;4.430;2023-05-07T13:28:36;9.68;;;3.47;;
24799;SDS011;12897;50.812;4.430;2023-05-07T13:31:04;6.30;;;4.10;;
24799;SDS011;12897;50.812;4.430;2023-05-07T13:33:31;10.18;;;5.22;;
24799;SDS011;12897;50.812;4.430;2023-05-07T13:35:59;6.87;;;5.12;;
24799;SDS011;12897;50.812;4.430;2023-05-07T13:38:27;8.13;;;5.55;;
24799;SDS011;12897;50.812;4.430;2023-05-07T13:40:54;8.18;;;6.10;;
24799;SDS011;12897;50.812;4.430;2023-05-07T13:43:22;10.90;;;6.70;;
24799;SDS011;12897;50.812;4.430;2023-05-07T13:45:50;9.18;;;6.42;;
24799;SDS011;12897;50.812;4.430;2023-05-07T13:48:17;10.48;;;6.90;;
24799;SDS011;12897;50.812;4.430;2023-05-07T13:50:45;10.05;;;7.08;;
24799;SDS011;12897;50.812;4.430;2023-05-07T13:53:12;9.10;;;6.87;;
24799;SDS011;12897;50.812;4.430;2023-05-07T13:55:43;10.48;;;6.97;;
24799;SDS011;12897;50.812;4.430;2023-05-07T13:58:11;11.60;;;8.98;;
24799;SDS011;12897;50.812;4.430;2023-05-07T14:00:38;10.20;;;8.63;;
24799;SDS011;12897;50.812;4.430;2023-05-07T14:03:06;10.65;;;8.83;;
24799;SDS011;12897;50.812;4.430;2023-05-07T14:05:33;12.07;;;9.43;;
24799;SDS011;12897;50.812;4.430;2023-05-07T14:08:01;11.40;;;9.75;;
24799;SDS011;12897;50.812;4.430;2023-05-07T14:10:31;12.37;;;9.23;;
24799;SDS011;12897;50.812;4.430;2023-05-07T14:13:00;12.78;;;10.23;;
24799;SDS011;12897;50.812;4.430;2023-05-07T14:15:28;11.28;;;9.50;;
24799;SDS011;12897;50.812;4.430;2023-05-07T14:17:56;15.45;;;11.43;;
24799;SDS011;12897;50.812;4.430;2023-05-07T14:20:24;15.70;;;11.73;;
24799;SDS011;12897;50.812;4.430;2023-05-07T14:22:52;13.48;;;10.78;;
24799;SDS011;12897;50.812;4.430;2023-05-07T14:25:20;16.97;;;12.53;;
24799;SDS011;12897;50.812;4.430;2023-05-07T14:27:48;13.78;;;10.58;;
24799;SDS011;12897;50.812;4.430;2023-05-07T14:30:15;10.80;;;9.15;;
24799;SDS011;12897;50.812;4.430;2023-05-07T14:32:43;13.80;;;9.65;;
24799;SDS011;12897;50.812;4.430;2023-05-07T14:35:10;15.25;;;11.03;;
24799;SDS011;12897;50.812;4.430;2023-05-07T14:37:38;12.10;;;9.78;;
24799;SDS011;12897;50.812;4.430;2023-05-07T14:40:09;12.65;;;9.85;;
24799;SDS011;12897;50.812;4.430;2023-05-07T14:42:36;12.65;;;10.03;;
24799;SDS011;12897;50.812;4.430;2023-05-07T14:45:04;13.38;;;10.88;;
24799;SDS011;12897;50.812;4.430;2023-05-07T14:47:33;16.27;;;11.10;;
24799;SDS011;12897;50.812;4.430;2023-05-07T14:50:01;13.68;;;10.55;;
24799;SDS011;12897;50.812;4.430;2023-05-07T14:52:29;11.78;;;8.43;;
24799;SDS011;12897;50.812;4.430;2023-05-07T14:54:57;11.05;;;8.93;;
24799;SDS011;12897;50.812;4.430;2023-05-07T14:57:24;13.03;;;9.88;;
24799;SDS011;12897;50.812;4.430;2023-05-07T14:59:52;14.65;;;10.45;;
24799;SDS011;12897;50.812;4.430;2023-05-07T15:02:20;13.53;;;9.18;;
24799;SDS011;12897;50.812;4.430;2023-05-07T15:04:47;13.80;;;8.95;;
24799;SDS011;12897;50.812;4.430;2023-05-07T15:07:15;11.30;;;9.08;;
24799;SDS011;12897;50.812;4.430;2023-05-07T15:09:43;11.60;;;8.33;;
24799;SDS011;12897;50.812;4.430;2023-05-07T15:12:11;10.65;;;8.18;;